Time;durP1;ratioP1;P1;durP2;ratioP2;P2;SDS_P1;SDS_P2;PMS_P1;PMS_P2;Temp;Humidity;BMP_temperature;BMP_pressure;BME280_temperature;BME280_humidity;BME280_pressure;Samples;Min_cycle;Max_cycle;Signal;HPM_P1;HPM_P2
2021/05/02 00:01:36;;;;;;;12.00;8.08;;;;;;;18.43;61.10;101252.64;1728614;82;21160;-49
2021/05/02 00:04:06;;;;;;;11.20;7.65;;;;;;;18.42;61.00;101243.87;1721121;81;21180;-49
2021/05/02 00:06:34;;;;;;;13.83;8.50;;;;;;;18.43;60.99;101246.05;1726150;82;21307;-48
2021/05/02 00:09:03;;;;;;;12.58;7.30;;;;;;;18.41;61.09;101237.36;1724437;82;21181;-47
2021/05/02 00:11:33;;;;;;;11.85;7.33;;;;;;;18.40;61.13;101239.62;1725343;82;21160;-50
2021/05/02 00:14:02;;;;;;;12.50;8.43;;;;;;;18.38;61.15;101242.79;1724189;82;21303;-49
2021/05/02 00:16:31;;;;;;;13.68;8.30;;;;;;;18.37;61.21;101242.38;1730923;82;21206;-50
2021/05/02 00:19:00;;;;;;;19.42;8.20;;;;;;;18.36;61.23;101244.64;1717444;82;21589;-49
2021/05/02 00:21:28;;;;;;;12.82;8.08;;;;;;;18.35;61.24;101244.23;1726380;82;21165;-47
2021/05/02 00:23:58;;;;;;;16.95;8.35;;;;;;;18.32;61.22;101245.22;1725056;82;21117;-47
2021/05/02 00:26:26;;;;;;;13.28;7.25;;;;;;;18.32;61.38;101250.98;1718121;81;21132;-49
2021/05/02 00:28:55;;;;;;;15.43;8.50;;;;;;;18.33;61.35;101250.90;1752435;81;21105;-49
2021/05/02 00:31:23;;;;;;;10.65;7.62;;;;;;;18.33;61.35;101231.59;1732981;81;21587;-47
2021/05/02 00:33:52;;;;;;;9.30;7.30;;;;;;;18.35;61.34;101231.06;1748163;81;21306;-53
2021/05/02 00:36:20;;;;;;;12.25;8.23;;;;;;;18.33;61.29;101227.19;1742852;81;21216;-48
2021/05/02 00:38:48;;;;;;;14.00;8.05;;;;;;;18.29;61.28;101232.20;1733708;81;21301;-47
2021/05/02 00:41:28;;;;;;;17.60;7.53;;;;;;;18.27;61.29;101243.73;1752458;81;21124;-49
2021/05/02 00:44:23;;;;;;;14.70;8.30;;;;;;;18.25;61.38;101256.12;1744192;81;21105;-51
2021/05/02 00:47:00;;;;;;;12.37;8.20;;;;;;;18.29;61.48;101253.73;1769409;79;22745;-49
2021/05/02 00:49:39;;;;;;;12.93;8.60;;;;;;;18.26;61.45;101248.14;1740643;82;21149;-53
2021/05/02 00:52:18;;;;;;;14.35;8.60;;;;;;;18.27;61.34;101251.18;1741193;82;21149;-45
2021/05/02 00:54:48;;;;;;;11.12;7.00;;;;;;;18.27;61.35;101263.03;1693521;84;21184;-50
2021/05/02 00:57:30;;;;;;;14.78;8.15;;;;;;;18.27;61.44;101258.22;1685846;84;21183;-48
2021/05/02 01:00:10;;;;;;;13.48;8.00;;;;;;;18.29;61.46;101259.00;1690608;84;21257;-49
2021/05/02 01:02:38;;;;;;;19.27;8.78;;;;;;;18.30;61.36;101254.98;1690726;84;21200;-47
2021/05/02 01:05:08;;;;;;;10.08;8.05;;;;;;;18.32;61.28;101253.13;1690580;84;21160;-49
2021/05/02 01:07:41;;;;;;;14.10;8.58;;;;;;;18.31;61.21;101251.43;1690826;84;21228;-50
2021/05/02 01:10:13;;;;;;;13.80;8.05;;;;;;;18.31;61.14;101255.84;1691233;84;21207;-48
2021/05/02 01:12:47;;;;;;;15.10;7.92;;;;;;;18.29;61.21;101247.15;1698468;84;21215;-47
2021/05/02 01:15:27;;;;;;;13.45;7.35;;;;;;;18.32;61.27;101244.39;1775962;79;22922;-50
2021/05/02 01:18:08;;;;;;;11.57;6.85;;;;;;;18.28;61.23;101250.73;1741109;82;21176;-48
2021/05/02 01:20:41;;;;;;;11.80;7.37;;;;;;;18.26;61.20;101236.77;1741307;82;21612;-47
2021/05/02 01:23:24;;;;;;;11.70;6.33;;;;;;;18.25;61.17;101231.09;1741204;82;21180;-50
2021/05/02 01:25:58;;;;;;;11.60;5.93;;;;;;;18.24;61.17;101229.37;1741416;82;21184;-52
2021/05/02 01:28:29;;;;;;;10.70;6.50;;;;;;;18.21;61.20;101228.20;1715731;82;21191;-51
2021/05/02 01:30:57;;;;;;;13.20;6.87;;;;;;;18.18;61.28;101217.80;1673563;86;21402;-47
2021/05/02 01:33:25;;;;;;;10.32;6.58;;;;;;;18.19;61.36;101222.16;1710634;83;21273;-51
2021/05/02 01:35:55;;;;;;;7.97;5.83;;;;;;;18.15;61.37;101214.00;1711390;83;21157;-45
2021/05/02 01:38:24;;;;;;;12.35;6.28;;;;;;;18.15;61.46;101206.10;1707168;83;21187;-45
2021/05/02 01:40:54;;;;;;;10.35;6.00;;;;;;;18.12;61.60;101206.23;1714360;83;21569;-50
2021/05/02 01:43:24;;;;;;;9.50;5.67;;;;;;;18.05;61.74;101212.26;1699195;83;21189;-50
2021/05/02 01:45:53;;;;;;;11.68;5.85;;;;;;;17.99;61.96;101211.67;1653023;86;21350;-49
2021/05/02 01:48:22;;;;;;;15.28;6.37;;;;;;;18.00;61.97;101213.37;1699215;83;21182;-50
2021/05/02 01:50:58;;;;;;;9.23;6.10;;;;;;;17.99;61.98;101215.63;1711195;83;21200;-50
2021/05/02 01:53:27;;;;;;;8.10;5.87;;;;;;;17.97;62.04;101214.84;1708251;83;21600;-49
2021/05/02 01:55:56;;;;;;;8.28;6.12;;;;;;;17.96;62.02;101215.75;1712197;83;21148;-50
2021/05/02 01:58:24;;;;;;;11.43;6.08;;;;;;;17.93;62.06;101206.69;1699277;83;21157;-45
2021/05/02 02:00:59;;;;;;;10.43;5.83;;;;;;;17.91;62.17;101200.63;1664299;86;21281;-48
2021/05/02 02:03:27;;;;;;;10.48;5.22;;;;;;;17.87;62.23;101204.70;1684249;83;21208;-47
2021/05/02 02:05:55;;;;;;;9.85;6.00;;;;;;;17.86;62.29;101196.43;1673500;86;21188;-45
2021/05/02 02:08:22;;;;;;;11.63;6.03;;;;;;;17.83;62.39;101188.66;1712021;83;21683;-48
2021/05/02 02:10:52;;;;;;;11.45;5.80;;;;;;;17.77;62.53;101194.20;1715830;83;21180;-48
2021/05/02 02:13:20;;;;;;;11.00;5.78;;;;;;;17.77;62.60;101182.80;1708692;83;21359;-47
2021/05/02 02:15:48;;;;;;;9.80;6.00;;;;;;;17.78;62.47;101186.67;1699582;83;21683;-45
2021/05/02 02:18:17;;;;;;;10.18;5.05;;;;;;;17.79;62.44;101180.50;1712457;83;21639;-49
2021/05/02 02:20:52;;;;;;;10.38;5.97;;;;;;;17.83;62.38;101171.55;1705178;83;21204;-48
2021/05/02 02:23:28;;;;;;;12.07;5.50;;;;;;;17.82;62.32;101174.25;1712501;83;21302;-48
2021/05/02 02:25:58;;;;;;;10.55;6.30;;;;;;;17.76;62.42;101167.47;1733997;82;21160;-49
2021/05/02 02:28:26;;;;;;;9.18;5.60;;;;;;;17.75;62.44;101157.88;1734880;82;21143;-50
2021/05/02 02:30:57;;;;;;;9.98;5.78;;;;;;;17.75;62.42;101159.19;1732775;82;21161;-49
2021/05/02 02:33:29;;;;;;;;;;;;;;;17.79;62.37;101150.69;1736581;82;21173;-48
2021/05/02 02:35:56;;;;;;;10.58;5.33;;;;;;;17.84;62.32;101150.03;1735032;82;20153;-45
2021/05/02 02:38:27;;;;;;;9.58;5.60;;;;;;;17.84;62.33;101144.31;1735546;82;21224;-48
2021/05/02 02:40:57;;;;;;;11.25;6.47;;;;;;;17.89;62.30;101148.89;1735553;82;21155;-45
2021/05/02 02:43:27;;;;;;;8.30;6.17;;;;;;;17.92;62.23;101136.50;1735442;82;21172;-45
2021/05/02 02:45:58;;;;;;;15.35;6.55;;;;;;;17.94;62.16;101129.39;1739096;81;21168;-46
2021/05/02 02:48:28;;;;;;;8.93;5.42;;;;;;;17.95;62.06;101126.68;1732671;82;21148;-50
2021/05/02 02:50:59;;;;;;;11.85;5.50;;;;;;;17.97;61.97;101116.10;1729704;82;21168;-49
2021/05/02 02:53:29;;;;;;;9.35;5.50;;;;;;;17.98;61.97;101123.05;1752490;81;21313;-46
2021/05/02 02:56:09;;;;;;;11.30;6.55;;;;;;;18.00;61.93;101122.52;1752593;81;21133;-47
2021/05/02 02:58:44;;;;;;;10.10;5.83;;;;;;;18.01;61.87;101133.47;1752672;81;21153;-47
2021/05/02 03:01:13;;;;;;;9.70;5.35;;;;;;;18.01;61.82;101135.61;1751316;81;21164;-49
2021/05/02 03:03:43;;;;;;;10.35;5.10;;;;;;;18.01;61.88;101134.78;1749782;81;21140;-49
2021/05/02 03:06:11;;;;;;;11.10;5.80;;;;;;;18.00;61.87;101139.19;1749423;81;21148;-50
2021/05/02 03:08:40;;;;;;;16.25;6.00;;;;;;;18.00;61.93;101159.39;1749550;81;21553;-45
2021/05/02 03:11:08;;;;;;;8.20;5.83;;;;;;;18.00;61.96;101172.55;1749536;81;21180;-52
2021/05/02 03:13:36;;;;;;;9.83;6.17;;;;;;;18.02;61.96;101208.89;1744178;81;21314;-49
2021/05/02 03:16:05;;;;;;;9.03;5.83;;;;;;;18.04;61.91;101230.73;1748097;81;21248;-47
2021/05/02 03:19:03;;;;;;;9.23;5.33;;;;;;;18.06;61.91;101206.05;1749403;81;21161;-47
2021/05/02 03:21:37;;;;;;;10.53;5.80;;;;;;;18.07;61.92;101214.81;1737903;81;21310;-51
2021/05/02 03:24:10;;;;;;;9.93;5.65;;;;;;;18.15;61.87;101207.42;1771624;79;23146;-50
2021/05/02 03:26:38;;;;;;;13.03;6.55;;;;;;;18.16;61.79;101211.75;1742223;82;21145;-48
2021/05/02 03:29:06;;;;;;;11.15;6.55;;;;;;;18.20;61.54;101202.77;1708372;82;21168;-49
2021/05/02 03:31:35;;;;;;;8.73;5.53;;;;;;;18.21;61.42;101201.41;1686605;82;21585;-47
2021/05/02 03:34:07;;;;;;;10.30;5.60;;;;;;;18.21;61.41;101191.33;1738581;82;21133;-48
2021/05/02 03:36:39;;;;;;;9.33;5.35;;;;;;;18.21;61.39;101183.43;1738830;82;21175;-50
2021/05/02 03:39:07;;;;;;;9.25;6.25;;;;;;;18.23;61.33;101169.72;1733381;82;21597;-51
2021/05/02 03:41:37;;;;;;;9.98;5.50;;;;;;;18.24;61.28;101138.48;1708551;83;21133;-46
2021/05/02 03:44:05;;;;;;;10.88;6.03;;;;;;;18.23;61.28;101126.27;1741116;82;21144;-47
2021/05/02 03:46:34;;;;;;;11.00;5.50;;;;;;;18.24;61.35;101134.08;1732169;82;21152;-47
2021/05/02 03:49:07;;;;;;;10.60;5.87;;;;;;;18.25;61.49;101134.95;1750302;82;21572;-49
2021/05/02 03:51:38;;;;;;;9.10;4.97;;;;;;;18.26;61.51;101134.03;1743533;82;21136;-51
2021/05/02 03:54:06;;;;;;;16.07;6.70;;;;;;;18.24;61.73;101133.22;1740701;82;21750;-51
2021/05/02 03:56:40;;;;;;;12.90;6.22;;;;;;;18.25;61.81;101118.68;1741217;82;21173;-48
2021/05/02 03:59:15;;;;;;;9.18;5.83;;;;;;;18.26;61.67;101116.42;1734668;82;21193;-52
2021/05/02 04:01:56;;;;;;;13.98;6.20;;;;;;;18.27;61.63;101119.92;1693142;84;21259;-48
2021/05/02 04:04:27;;;;;;;12.60;5.53;;;;;;;18.25;61.75;101129.67;1678374;84;21248;-51
2021/05/02 04:07:06;;;;;;;10.43;5.70;;;;;;;18.24;61.86;101115.64;1675466;85;21194;-46
2021/05/02 04:09:46;;;;;;;13.03;5.78;;;;;;;18.29;61.78;101093.04;1809337;79;23282;-52
2021/05/02 04:12:16;;;;;;;13.03;6.28;;;;;;;18.25;61.73;101094.11;1779915;80;21117;-50
2021/05/02 04:14:45;;;;;;;9.43;5.87;;;;;;;18.25;61.73;101095.44;1777809;80;21545;-49
2021/05/02 04:17:15;;;;;;;12.58;6.10;;;;;;;18.26;61.71;101091.88;1776734;80;21179;-51
2021/05/02 04:19:46;;;;;;;10.90;6.03;;;;;;;18.22;61.63;101081.08;1776925;80;21124;-51
2021/05/02 04:22:18;;;;;;;17.15;5.67;;;;;;;18.16;61.76;101086.64;1776971;80;21548;-47
2021/05/02 04:24:49;;;;;;;12.30;5.65;;;;;;;18.11;61.84;101100.50;1776911;80;21156;-49
2021/05/02 04:27:17;;;;;;;14.90;6.03;;;;;;;18.06;62.06;101106.44;1776934;80;21625;-51
2021/05/02 04:29:46;;;;;;;14.23;6.08;;;;;;;18.03;62.26;101113.18;1778209;80;21155;-50
2021/05/02 04:32:14;;;;;;;13.48;5.62;;;;;;;18.07;62.31;101109.48;1780183;80;21315;-46
2021/05/02 04:34:42;;;;;;;10.38;5.50;;;;;;;18.10;62.14;101104.05;1780431;80;21211;-50
2021/05/02 04:37:11;;;;;;;10.43;5.47;;;;;;;18.12;62.01;101092.98;1777952;80;21219;-48
2021/05/02 04:39:40;;;;;;;10.82;5.30;;;;;;;18.14;61.96;101085.86;1777528;80;21156;-49
2021/05/02 04:42:08;;;;;;;10.95;5.40;;;;;;;18.16;61.89;101078.28;1779547;80;21179;-50
2021/05/02 04:44:36;;;;;;;13.62;5.92;;;;;;;18.14;61.75;101063.47;1780100;80;21231;-50
2021/05/02 04:47:05;;;;;;;11.85;5.35;;;;;;;18.10;61.73;101041.70;1766257;80;21195;-47
2021/05/02 04:49:34;;;;;;;10.13;5.67;;;;;;;18.07;61.74;101033.97;1778853;80;21168;-49
2021/05/02 04:52:01;;;;;;;11.97;5.37;;;;;;;18.02;61.83;101027.20;1777448;80;21151;-49
2021/05/02 04:54:29;;;;;;;9.70;5.22;;;;;;;17.96;61.94;101027.48;1779269;80;21184;-49
2021/05/02 04:56:57;;;;;;;13.18;5.47;;;;;;;17.95;62.12;101033.70;1775277;80;21174;-50
2021/05/02 04:59:25;;;;;;;6.17;4.47;;;;;;;17.94;62.21;101026.71;1781807;80;21168;-49
2021/05/02 05:01:53;;;;;;;11.05;4.97;;;;;;;17.95;62.18;101019.22;1779657;80;21600;-48
2021/05/02 05:04:21;;;;;;;8.38;5.33;;;;;;;17.95;62.24;101023.17;1776938;80;21168;-47
2021/05/02 05:06:49;;;;;;;10.13;5.47;;;;;;;17.94;62.26;101016.18;1776580;80;21623;-48
2021/05/02 05:09:17;;;;;;;11.00;5.40;;;;;;;17.95;62.17;101010.83;1767203;80;21152;-50
2021/05/02 05:11:45;;;;;;;8.48;5.17;;;;;;;17.97;62.21;101002.88;1763651;81;21593;-50
2021/05/02 05:14:13;;;;;;;9.00;4.55;;;;;;;17.98;62.29;101009.84;1759514;81;21149;-52
2021/05/02 05:16:41;;;;;;;8.35;4.75;;;;;;;18.00;62.24;101002.72;1765951;81;21152;-50
2021/05/02 05:19:10;;;;;;;8.43;4.85;;;;;;;18.01;62.11;101003.95;1756951;81;21149;-47
2021/05/02 05:21:37;;;;;;;11.05;5.47;;;;;;;18.01;62.13;101007.90;1762960;80;21113;-47
2021/05/02 05:24:07;;;;;;;14.40;5.45;;;;;;;18.02;62.12;101003.05;1764069;81;21144;-49
2021/05/02 05:26:35;;;;;;;8.50;5.40;;;;;;;18.05;61.99;101006.00;1766461;81;21148;-52
2021/05/02 05:29:03;;;;;;;9.98;5.10;;;;;;;18.07;61.96;101002.37;1766108;81;21172;-47
2021/05/02 05:31:33;;;;;;;13.48;4.78;;;;;;;18.12;61.82;100999.48;1761269;81;21129;-49
2021/05/02 05:34:01;;;;;;;12.05;5.75;;;;;;;18.16;61.81;100997.09;1763573;81;21573;-50
2021/05/02 05:36:31;;;;;;;8.78;4.80;;;;;;;18.19;61.74;100995.64;1761915;81;21097;-50
2021/05/02 05:39:00;;;;;;;8.58;4.92;;;;;;;18.21;61.59;100997.28;1765280;81;21621;-51
2021/05/02 05:41:28;;;;;;;9.13;4.70;;;;;;;18.24;61.52;100999.73;1766321;81;21540;-47
2021/05/02 05:43:56;;;;;;;6.85;4.37;;;;;;;18.27;61.51;101006.19;1766291;81;21133;-50
2021/05/02 05:46:24;;;;;;;7.50;4.30;;;;;;;18.33;61.48;101016.87;1761634;81;21157;-48
2021/05/02 05:48:52;;;;;;;11.22;4.83;;;;;;;18.40;61.33;101014.34;1752193;81;21165;-50
2021/05/02 05:51:20;;;;;;;15.58;5.60;;;;;;;18.45;61.20;101013.66;1766121;81;21152;-51
2021/05/02 05:53:48;;;;;;;9.80;5.55;;;;;;;18.51;61.03;101006.77;1763960;81;21331;-51
2021/05/02 05:56:16;;;;;;;9.33;4.87;;;;;;;18.54;60.89;100998.27;1763347;80;21511;-49
2021/05/02 05:58:44;;;;;;;9.00;4.70;;;;;;;18.57;60.69;101000.73;1759404;80;21168;-48
2021/05/02 06:01:12;;;;;;;15.55;5.58;;;;;;;18.61;60.72;100999.64;1763075;81;21177;-47
2021/05/02 06:03:40;;;;;;;9.78;5.05;;;;;;;18.68;60.59;100993.59;1764503;81;21172;-51
2021/05/02 06:06:09;;;;;;;9.65;4.90;;;;;;;18.74;60.41;100989.33;1766083;81;21176;-47
2021/05/02 06:08:38;;;;;;;13.03;5.72;;;;;;;18.84;60.22;100981.78;1766431;81;21561;-52
2021/05/02 06:11:06;;;;;;;9.63;4.40;;;;;;;18.92;59.92;100977.81;1763724;81;21205;-48
2021/05/02 06:13:34;;;;;;;8.83;4.20;;;;;;;18.98;59.52;100968.27;1764942;81;21148;-47
2021/05/02 06:16:03;;;;;;;10.20;5.20;;;;;;;19.04;59.37;100967.94;1765269;81;21322;-47
2021/05/02 06:18:31;;;;;;;10.95;5.22;;;;;;;19.14;59.36;100957.77;1766252;81;21617;-47
2021/05/02 06:20:59;;;;;;;12.25;5.35;;;;;;;19.33;59.21;100963.77;1766110;81;21182;-50
2021/05/02 06:23:28;;;;;;;11.78;5.62;;;;;;;19.57;58.81;100953.66;1765387;81;21144;-47
2021/05/02 06:25:55;;;;;;;12.20;5.12;;;;;;;19.86;58.16;100955.53;1762628;81;21551;-50
2021/05/02 06:28:23;;;;;;;12.73;4.60;;;;;;;20.14;57.47;100954.31;1762796;81;21311;-47
2021/05/02 06:30:51;;;;;;;13.93;5.45;;;;;;;20.43;56.68;100958.79;1763162;80;21129;-47
2021/05/02 06:33:19;;;;;;;9.33;5.30;;;;;;;20.70;55.96;100962.44;1762668;81;21160;-46
2021/05/02 06:35:47;;;;;;;12.23;5.47;;;;;;;20.94;55.14;100958.30;1763261;81;21167;-53
2021/05/02 06:38:16;;;;;;;10.85;5.30;;;;;;;21.16;54.44;100951.72;1758780;81;21345;-47
2021/05/02 06:40:43;;;;;;;9.33;5.12;;;;;;;21.33;53.91;100943.59;1766129;81;21180;-48
2021/05/02 06:43:11;;;;;;;10.65;4.78;;;;;;;21.44;53.21;100935.33;1761923;81;21156;-46
2021/05/02 06:45:39;;;;;;;11.53;4.95;;;;;;;21.52;52.63;100933.50;1752614;81;21294;-51
2021/05/02 06:48:09;;;;;;;7.67;4.67;;;;;;;21.55;52.49;100936.83;1765799;81;21360;-50
2021/05/02 06:50:37;;;;;;;13.35;5.60;;;;;;;21.61;52.41;100935.58;1769724;80;21576;-51
2021/05/02 06:53:05;;;;;;;11.97;5.05;;;;;;;21.68;52.27;100932.42;1762776;81;21152;-50
2021/05/02 06:55:32;;;;;;;12.23;5.00;;;;;;;21.78;52.04;100935.34;1763055;81;21549;-49
2021/05/02 06:58:01;;;;;;;14.28;4.83;;;;;;;21.89;51.50;100936.83;1758970;81;21188;-47
2021/05/02 07:00:31;;;;;;;8.63;4.65;;;;;;;21.98;51.05;100937.56;1765956;80;21517;-48
2021/05/02 07:02:58;;;;;;;14.13;5.30;;;;;;;22.03;50.86;100940.74;1762153;81;21549;-46
2021/05/02 07:05:27;;;;;;;11.30;5.53;;;;;;;22.04;50.60;100940.27;1763465;81;21160;-47
2021/05/02 07:07:54;;;;;;;10.90;5.50;;;;;;;22.02;50.59;100941.71;1763360;81;21741;-46
2021/05/02 07:10:23;;;;;;;11.68;5.28;;;;;;;21.96;50.62;100934.17;1752464;80;21177;-45
2021/05/02 07:12:51;;;;;;;9.80;4.97;;;;;;;21.92;50.79;100937.97;1766283;81;21188;-45
2021/05/02 07:15:21;;;;;;;11.43;5.42;;;;;;;21.93;50.76;100935.68;1752458;81;21129;-48
2021/05/02 07:17:50;;;;;;;11.55;5.53;;;;;;;21.95;50.48;100941.73;1766041;81;21137;-48
2021/05/02 07:20:19;;;;;;;9.75;5.05;;;;;;;21.93;50.54;100940.98;1763566;81;21164;-46
2021/05/02 07:22:52;;;;;;;8.78;5.42;;;;;;;21.86;50.54;100941.84;1764105;81;21200;-47
2021/05/02 07:25:16;;;;;;;11.83;6.17;;;;;;;21.82;50.59;100932.91;1757232;81;21148;-47
2021/05/02 07:27:44;;;;;;;15.13;6.08;;;;;;;21.75;50.71;100939.50;1769712;81;21585;-45
2021/05/02 07:30:14;;;;;;;15.03;5.53;;;;;;;21.69;50.75;100942.09;1763273;81;21581;-45
2021/05/02 07:32:42;;;;;;;13.80;6.00;;;;;;;21.61;50.88;100936.44;1762833;80;21171;-45
2021/05/02 07:35:10;;;;;;;12.45;5.05;;;;;;;21.53;51.04;100934.75;1762783;80;21145;-46
2021/05/02 07:37:38;;;;;;;11.05;5.40;;;;;;;21.45;51.34;100930.39;1762738;80;21200;-46
2021/05/02 07:40:08;;;;;;;21.10;6.35;;;;;;;21.38;51.53;100930.89;1761848;81;21568;-48
2021/05/02 07:42:36;;;;;;;14.78;6.47;;;;;;;21.31;51.84;100934.89;1764871;81;21157;-48
2021/05/02 07:45:07;;;;;;;14.55;6.08;;;;;;;21.27;52.03;100936.03;1763017;81;21165;-47
2021/05/02 07:47:39;;;;;;;10.93;5.90;;;;;;;21.21;52.11;100942.54;1769092;81;21160;-48
2021/05/02 07:50:10;;;;;;;15.95;6.65;;;;;;;21.18;52.26;100937.45;1765215;81;21144;-48
2021/05/02 07:52:38;;;;;;;13.98;6.10;;;;;;;21.14;52.51;100931.13;1761700;81;21164;-45
2021/05/02 07:55:07;;;;;;;9.63;5.40;;;;;;;21.11;52.52;100931.30;1759481;81;21291;-49
2021/05/02 07:57:35;;;;;;;11.70;5.85;;;;;;;21.08;52.77;100937.66;1769704;80;21140;-47
2021/05/02 08:00:05;;;;;;;10.28;5.78;;;;;;;21.10;52.86;100944.17;1762802;81;21136;-45
2021/05/02 08:02:35;;;;;;;12.60;6.53;;;;;;;21.11;52.89;100943.20;1761282;81;21143;-49
2021/05/02 08:05:04;;;;;;;14.38;6.35;;;;;;;21.13;52.86;100931.59;1763187;81;21133;-45
2021/05/02 08:07:32;;;;;;;12.80;6.45;;;;;;;21.16;52.98;100932.73;1762507;81;21149;-45
2021/05/02 08:10:01;;;;;;;11.10;6.45;;;;;;;21.18;53.01;100929.98;1763016;81;21149;-49
2021/05/02 08:12:29;;;;;;;11.68;6.08;;;;;;;21.21;52.96;100920.52;1763744;81;21121;-49
2021/05/02 08:14:59;;;;;;;9.78;6.28;;;;;;;21.25;52.89;100911.43;1762939;81;21575;-45
2021/05/02 08:17:27;;;;;;;14.10;6.25;;;;;;;21.28;52.68;100904.64;1763928;81;21624;-45
2021/05/02 08:19:55;;;;;;;16.20;6.85;;;;;;;21.32;52.61;100906.14;1765497;81;21152;-48
2021/05/02 08:22:23;;;;;;;12.63;6.92;;;;;;;21.34;52.54;100921.45;1760863;81;21165;-49
2021/05/02 08:24:51;;;;;;;10.90;6.60;;;;;;;21.34;52.51;100916.16;1768455;80;21132;-48
2021/05/02 08:27:19;;;;;;;14.20;7.15;;;;;;;21.34;52.49;100914.83;1764633;81;21145;-46
2021/05/02 08:29:47;;;;;;;16.27;6.28;;;;;;;21.35;52.52;100912.58;1762749;81;21165;-45
2021/05/02 08:32:15;;;;;;;13.98;6.55;;;;;;;21.33;52.55;100903.39;1762980;81;21181;-49
2021/05/02 08:34:43;;;;;;;11.63;6.87;;;;;;;21.33;52.42;100907.36;1763277;81;21549;-45
2021/05/02 08:37:11;;;;;;;13.38;7.33;;;;;;;21.33;52.33;100914.47;1756346;81;21146;-48
2021/05/02 08:39:40;;;;;;;15.40;7.97;;;;;;;21.32;52.46;100916.73;1761373;81;21141;-49
2021/05/02 08:42:08;;;;;;;13.13;6.22;;;;;;;21.32;52.46;100919.38;1755992;81;21164;-45
2021/05/02 08:44:38;;;;;;;12.70;7.28;;;;;;;21.32;52.44;100933.93;1769334;81;21140;-45
2021/05/02 08:47:06;;;;;;;13.75;7.42;;;;;;;21.31;52.45;100929.59;1763354;81;21168;-48
2021/05/02 08:49:34;;;;;;;12.35;7.10;;;;;;;21.28;52.47;100929.31;1762632;81;21160;-46
2021/05/02 08:52:02;;;;;;;18.52;6.95;;;;;;;21.26;52.74;100923.73;1763175;81;21185;-45
2021/05/02 08:54:30;;;;;;;14.60;6.80;;;;;;;21.27;52.83;100920.16;1762385;81;21184;-49
2021/05/02 08:56:59;;;;;;;13.10;8.38;;;;;;;21.32;52.63;100907.46;1763000;81;21176;-46
2021/05/02 08:59:28;;;;;;;17.92;7.60;;;;;;;21.38;52.51;100912.36;1764417;81;21182;-45
2021/05/02 09:01:57;;;;;;;15.68;7.72;;;;;;;21.45;52.28;100908.39;1766170;81;21581;-48
2021/05/02 09:04:25;;;;;;;19.32;8.15;;;;;;;21.50;52.09;100907.14;1766048;81;21184;-46
2021/05/02 09:06:53;;;;;;;15.70;7.25;;;;;;;21.57;52.02;100902.30;1764116;81;21322;-45
2021/05/02 09:09:24;;;;;;;10.75;7.10;;;;;;;21.61;51.84;100912.60;1765274;80;21576;-51
2021/05/02 09:11:55;;;;;;;12.23;7.55;;;;;;;21.64;51.78;100892.98;1767622;80;21140;-48
2021/05/02 09:14:29;;;;;;;13.15;7.05;;;;;;;21.66;51.76;100881.82;1772968;80;21164;-47
2021/05/02 09:17:12;;;;;;;13.05;7.00;;;;;;;21.68;51.61;100887.41;1768715;80;21588;-47
2021/05/02 09:19:35;;;;;;;18.60;7.20;;;;;;;21.67;51.59;100895.45;1768715;80;21144;-45
2021/05/02 09:22:15;;;;;;;13.22;7.15;;;;;;;21.67;51.50;100892.80;1770905;80;21144;-45
2021/05/02 09:24:59;;;;;;;16.07;7.37;;;;;;;21.65;51.54;100888.08;1772630;80;21137;-45
2021/05/02 09:27:28;;;;;;;16.32;7.37;;;;;;;21.63;51.52;100886.87;1711956;82;21184;-44
2021/05/02 09:30:14;;;;;;;12.98;6.67;;;;;;;21.63;51.45;100887.34;1711573;83;21133;-50
2021/05/02 09:32:45;;;;;;;12.80;6.33;;;;;;;21.60;51.70;100866.34;1707878;84;21200;-46
2021/05/02 09:35:26;;;;;;;17.77;6.65;;;;;;;21.57;51.63;100866.55;1705757;84;21177;-46
2021/05/02 09:38:14;;;;;;;14.98;6.85;;;;;;;21.55;51.65;100865.80;1706259;84;21326;-45
2021/05/02 09:40:53;;;;;;;10.80;6.53;;;;;;;21.54;51.68;100872.03;1824343;77;23003;-45
2021/05/02 09:43:34;;;;;;;15.85;6.78;;;;;;;21.47;51.83;100874.72;1809710;78;21169;-48
2021/05/02 09:46:32;;;;;;;15.38;7.53;;;;;;;21.46;51.88;100859.77;1805444;78;21154;-47
2021/05/02 09:51:52;;;;;;;10.48;5.75;;;;;;;21.52;52.04;100860.23;1771678;79;23454;-45
2021/05/02 09:54:21;;;;;;;14.33;6.60;;;;;;;21.53;52.04;100861.08;1741099;82;21525;-46
2021/05/02 09:56:51;;;;;;;17.45;7.40;;;;;;;21.59;51.96;100867.30;1735196;82;21568;-45
2021/05/02 09:59:31;;;;;;;20.72;6.70;;;;;;;21.64;51.87;100859.89;1742098;82;21155;-46
2021/05/02 10:02:16;;;;;;;16.42;6.53;;;;;;;21.70;51.72;100855.54;1691203;82;21198;-49
2021/05/02 10:04:52;;;;;;;15.38;6.58;;;;;;;21.76;51.62;100851.16;1691020;84;21198;-45
2021/05/02 10:07:28;;;;;;;17.23;7.92;;;;;;;21.82;51.32;100844.16;1691090;84;21182;-47
2021/05/02 10:09:57;;;;;;;17.48;6.90;;;;;;;21.85;51.23;100841.30;1697438;82;21186;-45
2021/05/02 10:12:25;;;;;;;18.02;8.18;;;;;;;21.88;51.21;100832.30;1697294;84;21371;-47
2021/05/02 10:14:55;;;;;;;17.55;9.13;;;;;;;21.90;51.25;100827.27;1694757;84;21186;-46
2021/05/02 10:17:23;;;;;;;17.82;9.98;;;;;;;21.93;51.23;100831.02;1695611;84;21315;-48
2021/05/02 10:19:50;;;;;;;20.52;8.70;;;;;;;21.98;51.13;100832.05;1696067;84;21270;-48
2021/05/02 10:22:18;;;;;;;14.10;7.33;;;;;;;22.03;51.01;100824.15;1697327;84;21150;-46
2021/05/02 10:24:46;;;;;;;18.07;7.72;;;;;;;22.10;50.84;100820.14;1674349;84;21182;-44
2021/05/02 10:27:15;;;;;;;19.70;7.12;;;;;;;22.13;50.58;100816.44;1695315;84;21304;-49
2021/05/02 10:29:49;;;;;;;17.40;7.42;;;;;;;22.13;50.38;100806.70;1694268;84;21630;-46
2021/05/02 10:32:23;;;;;;;14.98;7.45;;;;;;;22.10;50.37;100804.24;1680998;84;21174;-51
2021/05/02 10:34:56;;;;;;;14.33;5.90;;;;;;;22.06;50.54;100804.08;1697381;84;21618;-48
2021/05/02 10:37:30;;;;;;;13.32;6.45;;;;;;;22.07;50.62;100799.14;1769768;79;23447;-50
2021/05/02 10:40:06;;;;;;;13.22;6.20;;;;;;;22.01;50.73;100794.26;1740915;82;21601;-44
2021/05/02 10:42:50;;;;;;;13.50;6.40;;;;;;;22.02;50.71;100806.57;1701534;82;21196;-53
2021/05/02 10:45:43;;;;;;;16.35;6.87;;;;;;;22.07;50.59;100795.66;1770597;79;22933;-49
2021/05/02 10:48:26;;;;;;;14.38;6.87;;;;;;;22.03;50.60;100796.33;1741109;82;21125;-45
2021/05/02 10:50:54;;;;;;;17.62;7.50;;;;;;;22.02;50.66;100790.67;1726393;82;21297;-48
2021/05/02 10:53:24;;;;;;;16.60;7.00;;;;;;;21.99;50.65;100790.87;1738433;82;21121;-51
2021/05/02 10:56:10;;;;;;;14.43;6.12;;;;;;;21.99;50.57;100794.02;1740298;82;21176;-45
2021/05/02 10:58:40;;;;;;;18.92;6.97;;;;;;;21.95;50.65;100780.61;1740326;82;21129;-49
2021/05/02 11:01:10;;;;;;;13.38;6.60;;;;;;;21.91;50.73;100782.59;1652519;86;21238;-44
2021/05/02 11:03:46;;;;;;;15.65;7.05;;;;;;;21.87;50.79;100781.11;1661816;85;21189;-45
2021/05/02 11:06:44;;;;;;;18.57;6.58;;;;;;;21.86;50.93;100769.66;1772863;79;22650;-50
2021/05/02 11:09:13;;;;;;;16.50;7.20;;;;;;;21.79;51.04;100778.95;1744585;82;21287;-46
2021/05/02 11:11:46;;;;;;;15.85;6.78;;;;;;;21.72;51.11;100780.80;1739002;82;21184;-46
2021/05/02 11:14:21;;;;;;;14.23;6.55;;;;;;;21.67;51.14;100781.58;1686623;84;21182;-47
2021/05/02 11:17:05;;;;;;;14.63;7.10;;;;;;;21.59;51.41;100778.59;1687000;84;21307;-50
2021/05/02 11:19:39;;;;;;;20.68;7.17;;;;;;;21.51;51.70;100776.94;1680621;84;21193;-49
2021/05/02 11:22:09;;;;;;;16.37;7.50;;;;;;;21.47;51.88;100766.17;1693292;84;21227;-46
2021/05/02 11:24:48;;;;;;;14.68;6.67;;;;;;;21.49;51.83;100760.30;1693265;84;21294;-46
2021/05/02 11:27:28;;;;;;;16.52;6.58;;;;;;;21.53;51.77;100763.12;1693578;84;21158;-49
2021/05/02 11:30:04;;;;;;;15.10;7.83;;;;;;;21.56;51.78;100762.89;1689471;84;21190;-49
2021/05/02 11:32:38;;;;;;;20.80;7.33;;;;;;;21.59;51.64;100762.70;1693348;83;21629;-49
2021/05/02 11:35:21;;;;;;;17.73;6.95;;;;;;;21.64;51.55;100746.88;1807435;79;22968;-45
2021/05/02 11:37:55;;;;;;;22.98;7.35;;;;;;;21.60;51.51;100753.33;1783959;80;21255;-49
2021/05/02 11:40:35;;;;;;;13.70;7.03;;;;;;;21.58;51.62;100759.67;1785636;80;21148;-45